createdAt,value
2023-01-18T00:00:30.066Z,36.60
2023-01-18T00:02:56.910Z,36.60
2023-01-18T00:05:23.592Z,37.70
2023-01-18T00:07:50.113Z,36.60
2023-01-18T00:10:16.596Z,36.90
2023-01-18T00:12:43.114Z,36.70
2023-01-18T00:15:09.561Z,36.00
2023-01-18T00:17:36.074Z,36.70
2023-01-18T00:20:02.561Z,36.50
2023-01-18T00:22:29.018Z,36.60
2023-01-18T00:24:55.450Z,36.50
2023-01-18T00:27:21.948Z,36.50
2023-01-18T00:29:48.387Z,36.30
2023-01-18T00:32:14.842Z,36.70
2023-01-18T00:34:41.322Z,36.50
2023-01-18T00:37:07.777Z,36.10
2023-01-18T00:39:34.284Z,36.40
2023-01-18T00:44:27.698Z,36.30
2023-01-18T00:46:54.135Z,37.40
2023-01-18T00:49:20.600Z,36.50
2023-01-18T00:51:47.200Z,36.60
2023-01-18T00:54:13.638Z,36.50
2023-01-18T00:59:07.042Z,36.60
2023-01-18T01:01:33.660Z,36.80
2023-01-18T01:04:00.169Z,36.60
2023-01-18T01:06:26.601Z,36.60
2023-01-18T01:08:53.035Z,36.80
2023-01-18T01:11:19.468Z,36.80
2023-01-18T01:16:13.052Z,37.00
2023-01-18T01:18:39.540Z,37.20
2023-01-18T01:23:32.998Z,37.00
2023-01-18T01:25:59.453Z,37.10
2023-01-18T01:28:25.932Z,37.10
2023-01-18T01:30:52.503Z,37.20
2023-01-18T01:33:18.970Z,36.90
2023-01-18T01:35:45.446Z,37.10
2023-01-18T01:38:11.900Z,36.90
2023-01-18T01:40:38.379Z,37.20
2023-01-18T01:45:31.797Z,37.00
2023-01-18T01:47:58.307Z,36.40
2023-01-18T01:50:24.799Z,36.80
2023-01-18T01:55:18.271Z,37.10
2023-01-18T01:57:44.767Z,36.50
2023-01-18T02:00:11.204Z,36.70
2023-01-18T02:05:04.741Z,36.60
2023-01-18T02:07:31.228Z,36.40
2023-01-18T02:12:24.793Z,36.60
2023-01-18T02:14:51.292Z,37.60
2023-01-18T02:17:17.828Z,36.50
2023-01-18T02:22:11.209Z,36.20
2023-01-18T02:24:37.674Z,36.20
2023-01-18T02:27:04.100Z,35.90
2023-01-18T02:31:57.513Z,36.50
2023-01-18T02:34:23.948Z,36.50
2023-01-18T02:36:50.412Z,36.50
2023-01-18T02:39:16.977Z,36.50
2023-01-18T02:41:43.449Z,36.60
2023-01-18T02:44:09.959Z,36.40
2023-01-18T02:46:36.458Z,36.50
2023-01-18T02:49:02.970Z,36.60
2023-01-18T02:51:29.408Z,36.30
2023-01-18T02:53:55.889Z,36.10
2023-01-18T02:56:22.325Z,36.10
2023-01-18T03:01:15.949Z,36.50
2023-01-18T03:03:42.549Z,36.50
2023-01-18T03:06:08.994Z,36.70
2023-01-18T03:08:35.483Z,36.50
2023-01-18T03:13:28.891Z,36.20
2023-01-18T03:15:55.408Z,36.60
2023-01-18T03:18:21.925Z,36.50
2023-01-18T03:23:15.357Z,36.40
2023-01-18T03:25:41.828Z,36.50
2023-01-18T03:28:08.335Z,35.30
2023-01-18T03:30:34.837Z,36.70
2023-01-18T03:33:01.445Z,36.60
2023-01-18T03:35:27.892Z,36.40
2023-01-18T03:37:54.399Z,36.40
2023-01-18T03:40:20.886Z,36.50
2023-01-18T03:47:41.322Z,36.40
2023-01-18T03:52:34.787Z,36.30
2023-01-18T03:55:01.284Z,36.40
2023-01-18T03:57:27.829Z,36.50
2023-01-18T04:02:21.290Z,36.40
2023-01-18T04:04:47.762Z,36.30
2023-01-18T04:07:14.239Z,36.30
2023-01-18T04:09:40.775Z,36.20
2023-01-18T04:12:07.237Z,36.40
2023-01-18T04:14:33.731Z,36.20
2023-01-18T04:17:00.235Z,36.30
2023-01-18T04:19:26.687Z,36.20
2023-01-18T04:21:53.137Z,36.20
2023-01-18T04:24:19.695Z,36.10
2023-01-18T04:26:46.225Z,36.20
2023-01-18T04:29:12.678Z,36.20
2023-01-18T04:34:06.171Z,36.10
2023-01-18T04:36:32.622Z,36.40
2023-01-18T04:38:59.052Z,36.30
2023-01-18T04:41:25.550Z,36.10
2023-01-18T04:46:19.048Z,36.40
2023-01-18T04:48:45.598Z,36.10
2023-01-18T04:51:12.176Z,36.40
2023-01-18T04:53:38.662Z,36.40
2023-01-18T04:56:05.140Z,36.50
2023-01-18T04:58:31.636Z,36.60
2023-01-18T05:00:58.128Z,36.60
2023-01-18T05:03:24.639Z,36.80
2023-01-18T05:05:51.097Z,36.70
2023-01-18T05:08:17.591Z,36.50
2023-01-18T05:10:44.090Z,36.70
2023-01-18T05:13:10.535Z,36.80
2023-01-18T05:15:36.963Z,36.80
2023-01-18T05:18:03.400Z,36.70
2023-01-18T05:22:57.178Z,36.60
2023-01-18T05:25:23.877Z,36.60
2023-01-18T05:27:50.326Z,36.60
2023-01-18T05:30:16.859Z,36.50
2023-01-18T05:32:43.362Z,36.20
2023-01-18T05:37:36.778Z,36.50
2023-01-18T05:40:03.223Z,36.40
2023-01-18T05:47:23.798Z,37.00
2023-01-18T05:49:50.283Z,36.60
2023-01-18T05:52:16.813Z,36.40
2023-01-18T05:54:43.301Z,36.50
2023-01-18T05:57:09.783Z,37.00
2023-01-18T05:59:36.300Z,36.50
2023-01-18T06:02:02.785Z,37.00
2023-01-18T06:04:29.306Z,36.60
2023-01-18T06:06:55.923Z,36.60
2023-01-18T06:09:22.414Z,36.50
2023-01-18T06:11:48.866Z,36.10
2023-01-18T06:14:15.314Z,37.10
2023-01-18T06:16:41.905Z,36.40
2023-01-18T06:19:08.406Z,36.20
2023-01-18T06:21:34.914Z,36.40
2023-01-18T06:24:01.358Z,36.40
2023-01-18T06:26:27.828Z,36.40
2023-01-18T06:28:54.342Z,36.30
2023-01-18T06:31:20.876Z,36.30
2023-01-18T06:33:47.380Z,36.50
2023-01-18T06:41:07.748Z,36.20
2023-01-18T06:43:34.279Z,36.50
2023-01-18T06:46:00.737Z,36.30
2023-01-18T06:48:27.275Z,36.50
2023-01-18T06:50:53.710Z,36.20
2023-01-18T06:53:20.176Z,36.20
2023-01-18T06:55:46.744Z,36.30
2023-01-18T06:58:13.248Z,36.20
2023-01-18T07:00:40.940Z,36.00
2023-01-18T07:03:07.404Z,36.30
2023-01-18T07:05:33.889Z,36.70
2023-01-18T07:08:00.350Z,36.20
2023-01-18T07:10:26.861Z,36.40
2023-01-18T07:15:22.693Z,36.10
2023-01-18T07:17:49.368Z,36.00
2023-01-18T07:20:15.884Z,36.40
2023-01-18T07:22:42.331Z,36.10
2023-01-18T07:25:08.761Z,36.10
2023-01-18T07:27:35.253Z,36.10
2023-01-18T07:30:01.748Z,35.70
2023-01-18T07:32:28.198Z,35.90
2023-01-18T07:34:54.645Z,37.00
2023-01-18T07:37:21.145Z,36.30
2023-01-18T07:39:47.623Z,36.00
2023-01-18T07:42:14.153Z,35.80
2023-01-18T07:44:40.646Z,36.50
2023-01-18T07:47:07.098Z,36.20
2023-01-18T07:49:33.583Z,35.90
2023-01-18T07:52:00.043Z,36.10
2023-01-18T07:54:26.491Z,36.00
2023-01-18T07:59:19.862Z,35.90
2023-01-18T08:01:46.379Z,36.00
2023-01-18T08:04:12.897Z,36.20
2023-01-18T08:09:06.327Z,36.10
2023-01-18T08:11:32.823Z,36.00
2023-01-18T08:13:59.313Z,36.00
2023-01-18T08:16:25.789Z,36.20
2023-01-18T08:18:52.220Z,36.20
2023-01-18T08:21:18.683Z,35.90
2023-01-18T08:23:45.138Z,36.20
2023-01-18T08:26:11.653Z,36.20
2023-01-18T08:28:38.139Z,36.40
2023-01-18T08:31:04.653Z,36.00
2023-01-18T08:33:31.105Z,36.10
2023-01-18T08:35:57.558Z,36.50
2023-01-18T08:38:24.000Z,36.70
2023-01-18T08:40:50.460Z,36.60
2023-01-18T08:45:43.896Z,37.20
2023-01-18T08:48:10.337Z,36.80
2023-01-18T08:50:36.782Z,36.60
2023-01-18T08:53:03.252Z,36.60
2023-01-18T08:55:29.730Z,36.70
2023-01-18T08:57:56.218Z,36.70
2023-01-18T09:00:22.675Z,36.50
2023-01-18T09:02:49.156Z,35.60
2023-01-18T09:05:15.591Z,36.20
2023-01-18T09:07:42.084Z,34.20
2023-01-18T09:10:08.528Z,36.00
2023-01-18T09:12:35.049Z,35.80
2023-01-18T09:17:28.507Z,36.10
2023-01-18T09:19:54.974Z,36.10
2023-01-18T09:22:21.481Z,36.00
2023-01-18T09:24:47.960Z,36.80
2023-01-18T09:27:14.425Z,36.20
2023-01-18T09:29:40.871Z,36.00
2023-01-18T09:32:07.298Z,36.90
2023-01-18T09:34:33.872Z,36.00
2023-01-18T09:37:00.375Z,36.10
2023-01-18T09:41:53.843Z,35.90
2023-01-18T09:44:20.298Z,35.90
2023-01-18T09:46:46.860Z,35.80
2023-01-18T09:51:40.377Z,36.20
2023-01-18T09:54:06.822Z,35.80
2023-01-18T09:56:33.304Z,36.20
2023-01-18T09:58:59.915Z,36.40
2023-01-18T10:01:26.493Z,36.10
2023-01-18T10:03:52.979Z,36.10
2023-01-18T10:08:46.382Z,36.30
2023-01-18T10:11:12.810Z,36.20
2023-01-18T10:13:39.274Z,36.10
2023-01-18T10:16:05.737Z,36.10
2023-01-18T10:18:32.242Z,36.10
2023-01-18T10:20:58.707Z,36.00
2023-01-18T10:23:25.145Z,35.80
2023-01-18T10:25:51.654Z,35.70
2023-01-18T10:28:18.148Z,35.80
2023-01-18T10:30:44.617Z,35.90
2023-01-18T10:33:11.066Z,36.00
2023-01-18T10:35:37.532Z,36.10
2023-01-18T10:38:04.043Z,36.10
2023-01-18T10:40:30.544Z,36.40
2023-01-18T10:42:57.453Z,35.90
2023-01-18T10:45:24.114Z,36.40
2023-01-18T10:47:50.570Z,36.60
2023-01-18T10:50:17.044Z,36.40
2023-01-18T10:52:43.542Z,36.20
2023-01-18T10:55:10.024Z,36.20
2023-01-18T10:57:36.534Z,36.30
2023-01-18T11:00:03.041Z,36.40
2023-01-18T11:02:29.528Z,36.40
2023-01-18T11:04:56.075Z,36.50
2023-01-18T11:07:22.519Z,36.50
2023-01-18T11:09:48.974Z,36.60
2023-01-18T11:12:15.587Z,36.70
2023-01-18T11:14:42.102Z,36.80
2023-01-18T11:19:35.556Z,37.50
2023-01-18T11:22:02.056Z,37.20
2023-01-18T11:24:28.549Z,37.20
2023-01-18T11:29:21.994Z,36.80
2023-01-18T11:34:15.470Z,37.20
2023-01-18T11:36:41.978Z,37.30
2023-01-18T11:39:08.497Z,36.70
2023-01-18T11:41:34.986Z,37.20
2023-01-18T11:44:01.540Z,36.50
2023-01-18T11:46:27.994Z,36.80
2023-01-18T11:48:54.516Z,36.80
2023-01-18T11:51:21.096Z,37.20
2023-01-18T11:53:47.623Z,36.90
2023-01-18T11:58:41.167Z,36.50
2023-01-18T12:01:07.644Z,36.70
2023-01-18T12:03:34.126Z,36.30
2023-01-18T12:08:27.611Z,36.10
2023-01-18T12:10:54.118Z,36.30
2023-01-18T12:13:20.608Z,36.30
2023-01-18T12:15:47.084Z,36.30
2023-01-18T12:18:14.074Z,35.90
2023-01-18T12:20:40.665Z,36.30
2023-01-18T12:25:34.169Z,36.30
2023-01-18T12:28:01.072Z,36.00
2023-01-18T12:30:27.922Z,36.10
2023-01-18T12:32:54.394Z,36.40
2023-01-18T12:35:24.761Z,37.20
2023-01-18T12:37:51.640Z,36.20
2023-01-18T12:40:18.093Z,36.30
2023-01-18T12:42:44.533Z,36.20
2023-01-18T12:45:11.064Z,36.30
2023-01-18T12:47:37.685Z,36.20
2023-01-18T12:50:04.315Z,36.30
2023-01-18T12:52:30.860Z,36.20
2023-01-18T12:54:57.337Z,36.70
2023-01-18T12:57:23.787Z,36.40
2023-01-18T12:59:50.289Z,36.50
2023-01-18T13:02:16.835Z,36.10
2023-01-18T13:04:43.434Z,36.40
2023-01-18T13:07:09.896Z,36.60
2023-01-18T13:09:36.400Z,37.10
2023-01-18T13:12:02.883Z,37.00
2023-01-18T13:16:56.280Z,36.30
2023-01-18T13:19:24.636Z,36.50
2023-01-18T13:21:51.349Z,37.00
2023-01-18T13:26:45.271Z,36.40
2023-01-18T13:29:11.731Z,36.30
2023-01-18T13:31:38.225Z,36.40
2023-01-18T13:34:04.683Z,36.00
2023-01-18T13:36:31.158Z,35.90
2023-01-18T13:38:57.824Z,36.90
2023-01-18T13:41:24.305Z,36.90
2023-01-18T13:43:50.763Z,36.90
2023-01-18T13:46:17.302Z,36.80
2023-01-18T13:48:43.906Z,36.60
2023-01-18T13:51:10.353Z,36.30
2023-01-18T13:56:03.768Z,36.60
2023-01-18T13:58:30.209Z,36.50
2023-01-18T14:00:56.737Z,36.70
2023-01-18T14:03:23.287Z,36.70
2023-01-18T14:05:49.774Z,36.40
2023-01-18T14:08:16.242Z,36.20
2023-01-18T14:10:42.703Z,36.40
2023-01-18T14:13:09.178Z,36.50
2023-01-18T14:15:35.683Z,36.20
2023-01-18T14:18:02.145Z,36.40
2023-01-18T14:20:28.698Z,36.90
2023-01-18T14:22:55.220Z,35.90
2023-01-18T14:25:21.723Z,36.30
2023-01-18T14:27:48.275Z,36.20
2023-01-18T14:30:14.773Z,36.40
2023-01-18T14:32:41.284Z,36.50
2023-01-18T14:35:07.746Z,36.60
2023-01-18T14:37:34.188Z,36.10
2023-01-18T14:40:00.677Z,36.40
2023-01-18T14:42:27.188Z,36.50
2023-01-18T14:44:58.507Z,36.40
2023-01-18T14:47:25.616Z,36.40
2023-01-18T14:49:52.150Z,36.20
2023-01-18T14:52:18.627Z,36.50
2023-01-18T14:54:45.138Z,36.30
2023-01-18T14:57:11.619Z,36.40
2023-01-18T14:59:38.105Z,36.40
2023-01-18T15:02:04.602Z,36.30
2023-01-18T15:04:31.117Z,36.80
2023-01-18T15:06:57.635Z,36.70
2023-01-18T15:12:15.159Z,36.90
2023-01-18T15:17:08.899Z,36.60
2023-01-18T15:19:35.449Z,36.60
2023-01-18T15:22:01.928Z,36.60
2023-01-18T15:29:45.943Z,36.50
2023-01-18T15:34:39.440Z,36.20
2023-01-18T15:37:05.911Z,36.50
2023-01-18T15:39:32.383Z,36.50
2023-01-18T15:41:58.871Z,36.10
2023-01-18T15:44:25.306Z,36.20
2023-01-18T15:49:41.764Z,36.30
2023-01-18T15:52:08.267Z,36.40
2023-01-18T15:54:34.710Z,36.20
2023-01-18T15:57:01.153Z,36.10
2023-01-18T15:59:27.672Z,36.10
2023-01-18T16:01:54.306Z,36.10
2023-01-18T16:04:21.041Z,36.10
2023-01-18T16:06:47.492Z,36.20
2023-01-18T16:12:20.279Z,36.10
2023-01-18T16:17:13.697Z,36.10
2023-01-18T16:19:40.138Z,36.10
2023-01-18T16:24:33.634Z,36.40
2023-01-18T16:27:00.091Z,36.10
2023-01-18T16:29:26.729Z,36.10
2023-01-18T16:31:54.874Z,35.80
2023-01-18T16:34:33.669Z,36.60
2023-01-18T16:37:00.169Z,36.20
2023-01-18T16:39:26.613Z,35.90
2023-01-18T16:41:53.107Z,36.10
2023-01-18T16:47:03.948Z,36.20
2023-01-18T16:49:30.396Z,36.20
2023-01-18T16:51:56.857Z,36.40
2023-01-18T16:54:23.355Z,36.10
2023-01-18T16:59:33.917Z,36.00
2023-01-18T17:02:00.574Z,36.10
2023-01-18T17:04:27.154Z,36.10
2023-01-18T17:06:53.599Z,36.10
2023-01-18T17:12:10.880Z,36.00
2023-01-18T17:17:04.292Z,35.80
2023-01-18T17:19:30.810Z,36.00
2023-01-18T17:24:47.908Z,37.00
2023-01-18T17:27:14.405Z,36.20
2023-01-18T17:29:40.862Z,36.30
2023-01-18T17:32:07.292Z,36.40
2023-01-18T17:34:33.820Z,36.20
2023-01-18T17:37:00.268Z,36.20
2023-01-18T17:39:37.027Z,36.30
2023-01-18T17:42:18.913Z,35.90
2023-01-18T17:44:49.170Z,36.20
2023-01-18T17:47:15.670Z,36.00
2023-01-18T17:49:42.168Z,36.40
2023-01-18T17:52:08.644Z,36.20
2023-01-18T17:57:02.080Z,36.00
2023-01-18T17:59:28.692Z,36.20
2023-01-18T18:01:55.235Z,35.70
2023-01-18T18:04:21.742Z,35.90
2023-01-18T18:06:54.221Z,36.30
2023-01-18T18:09:21.012Z,36.60
2023-01-18T18:11:47.451Z,36.30
2023-01-18T18:14:13.921Z,36.40
2023-01-18T18:16:43.476Z,36.40
2023-01-18T18:19:10.393Z,36.40
2023-01-18T18:21:36.893Z,36.60
2023-01-18T18:24:03.567Z,36.30
2023-01-18T18:26:30.069Z,36.60
2023-01-18T18:28:56.574Z,36.70
2023-01-18T18:34:14.148Z,36.60
2023-01-18T18:36:56.071Z,36.80
2023-01-18T18:42:12.783Z,36.50
2023-01-18T18:44:39.274Z,36.50
2023-01-18T18:47:07.546Z,36.40
2023-01-18T18:49:34.143Z,36.60
2023-01-18T18:54:48.500Z,36.40
2023-01-18T18:59:59.295Z,36.60
2023-01-18T19:04:52.926Z,36.40
2023-01-18T19:10:03.617Z,37.40
2023-01-18T19:15:21.153Z,37.00
2023-01-18T19:32:51.332Z,36.90
2023-01-18T19:35:26.769Z,36.90
2023-01-18T19:37:53.213Z,36.80
2023-01-18T19:40:19.693Z,36.90
2023-01-18T19:42:46.208Z,37.30
2023-01-18T19:45:19.702Z,36.90
2023-01-18T19:47:53.427Z,36.90
2023-01-18T19:50:19.987Z,36.90
2023-01-18T19:52:46.517Z,36.80
2023-01-18T19:55:13.005Z,36.70
2023-01-18T20:00:06.831Z,37.20
2023-01-18T20:02:33.370Z,37.50
2023-01-18T20:04:59.867Z,37.10
2023-01-18T20:07:26.358Z,36.80
2023-01-18T20:09:52.806Z,36.90
2023-01-18T20:12:19.305Z,36.70
2023-01-18T20:14:46.091Z,36.70
2023-01-18T20:17:12.641Z,36.80
2023-01-18T20:19:39.122Z,36.60
2023-01-18T20:22:06.010Z,37.50
2023-01-18T20:24:32.502Z,36.70
2023-01-18T20:29:41.189Z,36.90
2023-01-18T20:32:15.341Z,36.40
2023-01-18T20:37:10.013Z,36.50
2023-01-18T20:39:36.485Z,36.30
2023-01-18T20:42:02.909Z,36.30
2023-01-18T20:44:29.391Z,36.60
2023-01-18T20:46:55.889Z,36.50
2023-01-18T20:49:27.298Z,36.40
2023-01-18T20:51:59.830Z,36.60
2023-01-18T20:54:26.363Z,36.10
2023-01-18T20:56:52.891Z,36.30
2023-01-18T20:59:19.345Z,36.20
2023-01-18T21:01:45.910Z,36.80
2023-01-18T21:04:12.454Z,37.10
2023-01-18T21:06:38.964Z,36.30
2023-01-18T21:09:05.439Z,36.20
2023-01-18T21:11:31.887Z,36.20
2023-01-18T21:13:58.374Z,36.60
2023-01-18T21:16:24.912Z,36.60
2023-01-18T21:18:54.175Z,36.60
2023-01-18T21:21:23.565Z,36.50
2023-01-18T21:23:50.001Z,36.50
2023-01-18T21:26:16.766Z,38.40
2023-01-18T21:28:43.247Z,37.00
2023-01-18T21:31:09.690Z,37.70
2023-01-18T21:33:36.332Z,37.70
2023-01-18T21:36:02.875Z,37.70
2023-01-18T21:40:56.564Z,37.70
2023-01-18T21:43:23.059Z,38.00
2023-01-18T21:48:16.593Z,38.30
2023-01-18T21:50:43.063Z,38.20
2023-01-18T21:53:09.558Z,37.80
2023-01-18T21:58:03.281Z,37.80
2023-01-18T22:00:29.790Z,37.80
2023-01-18T22:02:56.336Z,37.80
2023-01-18T22:05:22.813Z,37.40
2023-01-18T22:07:49.427Z,37.80
2023-01-18T22:10:15.885Z,37.40
2023-01-18T22:12:42.335Z,37.40
2023-01-18T22:15:08.810Z,37.60
2023-01-18T22:17:35.272Z,37.40
2023-01-18T22:20:01.849Z,37.20
2023-01-18T22:22:28.551Z,37.20
2023-01-18T22:24:55.285Z,37.30
2023-01-18T22:27:21.809Z,36.50
2023-01-18T22:29:48.307Z,37.00
2023-01-18T22:32:14.806Z,36.80
2023-01-18T22:34:41.314Z,36.60
2023-01-18T22:37:07.870Z,37.20
2023-01-18T22:39:34.349Z,36.80
2023-01-18T22:42:00.823Z,36.80
2023-01-18T22:44:27.285Z,36.80
2023-01-18T22:46:53.949Z,36.80
2023-01-18T22:49:20.446Z,36.80
2023-01-18T22:51:46.889Z,36.90
2023-01-18T22:54:13.444Z,36.70
2023-01-18T22:56:39.972Z,36.40
2023-01-18T22:59:06.416Z,36.20
2023-01-18T23:03:59.873Z,37.40
2023-01-18T23:06:26.393Z,36.70
2023-01-18T23:13:46.798Z,36.70
2023-01-18T23:16:13.374Z,36.50
2023-01-18T23:18:39.888Z,36.60
2023-01-18T23:21:06.392Z,36.50
2023-01-18T23:23:32.866Z,36.60
2023-01-18T23:25:59.369Z,35.90
2023-01-18T23:28:25.849Z,36.50
2023-01-18T23:30:52.378Z,36.30
2023-01-18T23:33:18.810Z,36.90
2023-01-18T23:35:45.279Z,36.40
2023-01-18T23:38:11.766Z,36.40
2023-01-18T23:40:38.222Z,36.30
2023-01-18T23:43:04.683Z,36.40
2023-01-18T23:45:31.163Z,36.40
2023-01-18T23:47:58.372Z,36.20
2023-01-18T23:50:25.189Z,36.50
2023-01-18T23:52:51.667Z,36.60
2023-01-18T23:55:18.115Z,36.30
2023-01-18T23:57:44.591Z,36.30
